METAR Data
IDs: Format: Raw Decoded Include TAF

Data at: 1716 UTC 21 Sep 2018

KCRP 211651Z 16010KT 10SM FEW026 SCT033 SCT210 BKN250 32/24 A2993 RMK AO2 SLP132 T03220244
KCRP 211551Z 18010KT 10SM SCT024 SCT035 BKN210 BKN250 31/26 A2993 RMK AO2 SLP133 T03110261
KCRP 211451Z 17011KT 10SM FEW019 SCT023 BKN200 BKN250 29/25 A2992 RMK AO2 SLP132 T02940250 53011
KCRP 211351Z 15010KT 10SM FEW020 FEW200 SCT250 28/26 A2991 RMK AO2 SLP127 T02830256
KCRP 211251Z 13006KT 10SM FEW020 SCT200 BKN250 26/24 A2991 RMK AO2 SLP125 T02610244
KCRP 211151Z 15007KT 10SM FEW020 SCT200 BKN250 27/24 A2989 RMK AO2 SLP121 T02670244 10278 20261 53004
KCRP 211051Z 14006KT 10SM FEW019 FEW200 BKN250 26/24 A2988 RMK AO2 SLP118 T02610244
KCRP 210951Z 15005KT 10SM FEW018 FEW200 BKN250 27/24 A2989 RMK AO2 SLP119 T02670244
KCRP 210851Z 15008KT 10SM FEW018 FEW200 BKN250 27/25 A2988 RMK AO2 SLP117 T02670250 56010
KCRP 210751Z 15007KT 10SM FEW019 FEW140 SCT200 BKN250 27/25 A2989 RMK AO2 SLP120 T02720250
KCRP 210651Z 15010KT 10SM FEW019 FEW130 SCT200 BKN250 28/25 A2990 RMK AO2 SLP124 T02780250
KCRP 210551Z 15010KT 10SM FEW019 FEW140 SCT200 BKN250 28/25 A2991 RMK AO2 SLP127 60000 T02780250 10283 20272 403330261 50002
KCRP 210451Z 14012KT 10SM FEW019 FEW140 SCT200 BKN250 28/25 A2992 RMK AO2 SLP131 T02780250
KCRP 210351Z 14009KT 10SM FEW018 FEW140 FEW200 BKN250 28/25 A2992 RMK AO2 SLP130 T02780250
KCRP 210251Z 14009KT 10SM FEW018 FEW140 FEW200 BKN250 28/25 A2991 RMK AO2 SLP125 60000 T02780250 53007
KCRP 210151Z 15010KT 10SM FEW018 FEW140 SCT200 BKN250 28/25 A2988 RMK AO2 RAE38 SLP118 P0000 T02780250
KCRP 210051Z 14010KT 10SM -RA FEW005 FEW018 BKN140 BKN200 BKN250 28/25 A2987 RMK AO2 SLP114 CB DSNT NW-N W MOV NE P0000 T02780250
KCRP 202351Z 14011KT 10SM -RA FEW005 FEW018 BKN140 BKN200 BKN250 28/25 A2988 RMK AO2 RAB51 TSE32 SLP118 TS DSIPT CB DSNT NW-N W MOV NE P0000 60000 T02830250 10333 20283 53008
KCRP 202332Z 14011KT 10SM FEW005 FEW018 FEW040 BKN200 BKN250 29/25 A2987
KCRP 202251Z 15012KT 10SM TS FEW005 FEW020 FEW040 BKN200 BKN250 30/25 A2986 RMK AO2 LTG DSNT W AND NW TSB48 SLP111 OCNL LTGIC DSNT W TS DSNT W MOV N CB DSNT NE SW NW MOV N T03000250
KCRP 202248Z 14013KT 10SM TS FEW005 FEW020 FEW040 BKN200 BKN250 30/25 A2986
KCRP 202151Z 14016KT 10SM FEW028 FEW038 FEW045 BKN210 BKN250 31/24 A2986 RMK AO2 SLP110 CB DSNT N SW W MOV NE T03110244
KCRP 202051Z 15017KT 10SM FEW030 FEW038 FEW047 BKN210 BKN250 32/24 A2986 RMK AO2 SLP109 CB DSNT N MOV NE TCU DSNT NE SE SW W NW T03220244 58022
KCRP 201951Z 15015KT 10SM FEW029 FEW036 FEW045 BKN180 BKN250 33/25 A2988 RMK AO2 SLP118 CB DSNT N MOV N TCU DSNT NE E SE W T03330250
KCRP 201851Z 15015KT 10SM FEW028 FEW035 SCT044 BKN170 BKN250 33/26 A2991 RMK AO2 SLP127 CB DSNT N MOV N TCU DSNT NE E NW T03280256
KCRP 201751Z 14015KT 10SM FEW026 SCT031 SCT040 BKN170 BKN250 31/25 A2992 RMK AO2 SLP131 TCU DSNT N NE 60000 T03110250 10311 20261 58003
KCRP 201651Z 17014G21KT 10SM FEW026 SCT037 SCT080 SCT130 BKN180 BKN250 31/24 A2994 RMK AO2 LTG DSNT E TSE12 SLP137 TS DSIPT TCU DSNT N SE VCSH NW-N T03110244
KCRP 201612Z 15015KT 10SM FEW019 SCT027 BKN060 BKN130 BKN250 31/25 A2994
KCRP 201551Z 14009KT 10SM TS FEW017 SCT026CB SCT035 BKN180 BKN250 29/25 A2994 RMK AO2 LTG DSNT NE RAB11E21B42E51 TSB51 SLP138 OCNL LTGIC N-NE TS N-NE MOV N TCU DSNT SE NW VCSH N-NE P0000 T02940250
KCRP 201451Z 15008KT 10SM FEW019TCU FEW027 BKN190 BKN250 28/26 A2993 RMK AO2 SLP134 CB DSNT E MOV N TCU SE-S DSNT NE E SE S VCSH SE-S T02830256 53010
KCRP 201351Z 14006KT 10SM FEW017 FEW026 FEW110 BKN160 OVC250 27/26 A2992 RMK AO2 SLP131 TCU DSNT NE E SE S T02720256
KCRP 201251Z 17004KT 10SM FEW017 FEW025 FEW110 BKN160 OVC250 26/25 A2991 RMK AO2 SLP127 T02610250
KCRP 201151Z 00000KT 10SM FEW018 FEW040 SCT120 BKN170 OVC200 27/25 A2990 RMK AO2 RAE21 TSB01E36 SLP124 TS DSIPT P0000 60000 T02670250 10272 20267 53002 $
KCRP 201136Z 00000KT 10SM FEW018 FEW040 SCT100 OVC150 27/26 A2990 RMK AO2 RAE21 TSB01E36 TS DSIPT P0000 T02670256 $
KCRP 201101Z 15005KT 10SM -TSRA FEW017 FEW025 SCT100 BKN160 OVC200 27/25 A2990
KCRP 201051Z 14005KT 10SM -RA FEW017 FEW025 FEW110 BKN160 OVC200 27/25 A2990 RMK AO2 SLP122 RAB39 TSB28E51 TS DSIPT P0000 T02670250 $
KCRP 201028Z COR 16004KT 10SM TS FEW017CB FEW033 FEW100 BKN160 OVC200 27/26 A2990
KCRP 200951Z 13005KT 10SM FEW017 FEW033 FEW100 BKN160 OVC200 27/25 A2989 RMK AO2 SLP120 T02670250
KCRP 200851Z 14006KT 10SM FEW016 FEW100 BKN150 OVC200 27/25 A2989 RMK AO2 SLP122 T02720250 58011
KCRP 200751Z 14006KT 10SM FEW016TCU FEW100 BKN170 OVC220 27/25 A2991 RMK AO2 SLP126 TCU E T02670250
KCRP 200651Z 13006KT 10SM FEW017 FEW023 FEW100 BKN200 OVC250 27/25 A2992 RMK AO2 LTG DSNT E SLP131 OCNL LTGIC DSNT E CB DSNT E MOV NW T02720250
KCRP 200551Z 14007KT 10SM FEW015 FEW023TCU FEW030 BKN200 OVC250 27/25 A2993 RMK AO2 RAB20E26 SLP133 OCNL LTGIC DSNT N CB DSNT N MOV N TCU N W NW P0000 60000 T02720250 10289 20272 403390250 51006